sensor_id;sensor_type;location;lat;lon;timestamp;temperature;humidity
8872;DHT22;4472;52.092;9.820;2024-01-06T20:25:21;1.90;99.90
8872;DHT22;4472;52.092;9.820;2024-01-06T20:28:08;1.90;99.90
8872;DHT22;4472;52.092;9.820;2024-01-06T20:30:56;2.00;99.90
8872;DHT22;4472;52.092;9.820;2024-01-06T20:33:45;1.90;99.90
8872;DHT22;4472;52.092;9.820;2024-01-06T20:36:36;1.90;99.90
8872;DHT22;4472;52.092;9.820;2024-01-06T20:39:25;1.90;99.90
8872;DHT22;4472;52.092;9.820;2024-01-06T20:42:15;1.90;99.90
8872;DHT22;4472;52.092;9.820;2024-01-06T20:45:07;1.80;99.90
8872;DHT22;4472;52.092;9.820;2024-01-06T20:47:55;1.90;99.90
8872;DHT22;4472;52.092;9.820;2024-01-06T20:50:44;1.90;99.90
8872;DHT22;4472;52.092;9.820;2024-01-06T20:53:33;1.90;99.90
8872;DHT22;4472;52.092;9.820;2024-01-06T20:56:22;1.80;99.90
8872;DHT22;4472;52.092;9.820;2024-01-06T20:59:15;1.70;99.90
8872;DHT22;4472;52.092;9.820;2024-01-06T21:02:03;1.70;99.90
8872;DHT22;4472;52.092;9.820;2024-01-06T21:04:52;1.70;99.90
8872;DHT22;4472;52.092;9.820;2024-01-06T21:07:41;1.70;99.90
8872;DHT22;4472;52.092;9.820;2024-01-06T21:10:30;1.70;99.90
8872;DHT22;4472;52.092;9.820;2024-01-06T21:13:19;1.80;99.90
8872;DHT22;4472;52.092;9.820;2024-01-06T21:16:10;1.70;99.90
8872;DHT22;4472;52.092;9.820;2024-01-06T21:19:00;1.60;99.90
8872;DHT22;4472;52.092;9.820;2024-01-06T21:21:48;1.70;99.90
8872;DHT22;4472;52.092;9.820;2024-01-06T21:24:37;1.70;99.90
8872;DHT22;4472;52.092;9.820;2024-01-06T21:27:27;1.70;99.90
8872;DHT22;4472;52.092;9.820;2024-01-06T21:30:15;1.60;99.90
8872;DHT22;4472;52.092;9.820;2024-01-06T21:33:07;1.60;99.90
8872;DHT22;4472;52.092;9.820;2024-01-06T21:35:56;1.50;99.90
8872;DHT22;4472;52.092;9.820;2024-01-06T21:38:44;1.50;99.90
8872;DHT22;4472;52.092;9.820;2024-01-06T21:41:33;1.50;99.90
8872;DHT22;4472;52.092;9.820;2024-01-06T21:44:22;1.50;99.90
8872;DHT22;4472;52.092;9.820;2024-01-06T21:47:10;1.50;99.90
8872;DHT22;4472;52.092;9.820;2024-01-06T21:49:59;1.50;99.90
8872;DHT22;4472;52.092;9.820;2024-01-06T21:52:49;1.50;99.90
8872;DHT22;4472;52.092;9.820;2024-01-06T21:55:38;1.50;99.90
8872;DHT22;4472;52.092;9.820;2024-01-06T21:58:25;1.50;99.90
8872;DHT22;4472;52.092;9.820;2024-01-06T22:01:13;1.50;99.90
8872;DHT22;4472;52.092;9.820;2024-01-06T22:04:01;1.40;99.90
8872;DHT22;4472;52.092;9.820;2024-01-06T22:06:52;1.40;99.90
8872;DHT22;4472;52.092;9.820;2024-01-06T22:09:40;1.40;99.90
8872;DHT22;4472;52.092;9.820;2024-01-06T22:12:28;1.40;99.90
8872;DHT22;4472;52.092;9.820;2024-01-06T22:15:17;1.40;99.90
8872;DHT22;4472;52.092;9.820;2024-01-06T22:18:06;1.50;99.90
8872;DHT22;4472;52.092;9.820;2024-01-06T22:20:54;1.40;99.90
8872;DHT22;4472;52.092;9.820;2024-01-06T22:23:46;1.40;99.90
8872;DHT22;4472;52.092;9.820;2024-01-06T22:26:36;1.40;99.90
8872;DHT22;4472;52.092;9.820;2024-01-06T22:29:25;1.30;99.90
8872;DHT22;4472;52.092;9.820;2024-01-06T22:32:14;1.20;99.90
8872;DHT22;4472;52.092;9.820;2024-01-06T22:35:03;1.20;99.90
8872;DHT22;4472;52.092;9.820;2024-01-06T22:37:52;1.30;99.90
8872;DHT22;4472;52.092;9.820;2024-01-06T22:40:44;1.30;99.90
8872;DHT22;4472;52.092;9.820;2024-01-06T22:43:32;1.30;99.90
8872;DHT22;4472;52.092;9.820;2024-01-06T22:46:22;1.20;99.90
8872;DHT22;4472;52.092;9.820;2024-01-06T22:49:11;1.20;99.90
8872;DHT22;4472;52.092;9.820;2024-01-06T22:52:00;1.30;99.90
8872;DHT22;4472;52.092;9.820;2024-01-06T22:54:49;1.30;99.90
8872;DHT22;4472;52.092;9.820;2024-01-06T22:57:40;1.30;99.90
8872;DHT22;4472;52.092;9.820;2024-01-06T23:00:28;1.30;99.90
8872;DHT22;4472;52.092;9.820;2024-01-06T23:03:23;1.20;99.90
8872;DHT22;4472;52.092;9.820;2024-01-06T23:06:11;1.20;99.90
8872;DHT22;4472;52.092;9.820;2024-01-06T23:08:59;1.20;99.90
8872;DHT22;4472;52.092;9.820;2024-01-06T23:11:48;1.20;99.90
8872;DHT22;4472;52.092;9.820;2024-01-06T23:14:40;1.20;99.90
8872;DHT22;4472;52.092;9.820;2024-01-06T23:17:29;1.20;99.90
8872;DHT22;4472;52.092;9.820;2024-01-06T23:20:18;1.20;99.90
8872;DHT22;4472;52.092;9.820;2024-01-06T23:23:06;1.20;99.90
8872;DHT22;4472;52.092;9.820;2024-01-06T23:25:55;1.20;99.90
8872;DHT22;4472;52.092;9.820;2024-01-06T23:28:44;1.20;99.90
8872;DHT22;4472;52.092;9.820;2024-01-06T23:31:33;1.30;99.90
8872;DHT22;4472;52.092;9.820;2024-01-06T23:34:22;1.30;99.90
8872;DHT22;4472;52.092;9.820;2024-01-06T23:37:15;1.20;99.90
8872;DHT22;4472;52.092;9.820;2024-01-06T23:40:05;1.20;99.90
8872;DHT22;4472;52.092;9.820;2024-01-06T23:42:54;1.20;99.90
8872;DHT22;4472;52.092;9.820;2024-01-06T23:45:43;1.30;99.90
8872;DHT22;4472;52.092;9.820;2024-01-06T23:48:34;1.30;99.90
8872;DHT22;4472;52.092;9.820;2024-01-06T23:51:22;1.30;99.90
8872;DHT22;4472;52.092;9.820;2024-01-06T23:54:13;1.30;99.90
8872;DHT22;4472;52.092;9.820;2024-01-06T23:57:01;1.30;99.90
8872;DHT22;4472;52.092;9.820;2024-01-06T23:59:50;1.30;99.90
